Time;durP1;ratioP1;P1;durP2;ratioP2;P2;SDS_P1;SDS_P2;PMS_P1;PMS_P2;Temp;Humidity;BMP_temperature;BMP_pressure;BME280_temperature;BME280_humidity;BME280_pressure;Samples;Min_cycle;Max_cycle;Signal;HPM_P1;HPM_P2
2021/01/21 00:00:30;;;;;;;7.70;3.20;;;;;;;26.06;15.21;97374.59;5041435;28;20033;-88
2021/01/21 00:02:56;;;;;;;6.90;3.63;;;;;;;25.02;16.03;97381.03;5037919;28;20039;-88
2021/01/21 00:05:22;;;;;;;4.97;2.83;;;;;;;25.65;15.67;97377.09;5042425;28;20104;-88
2021/01/21 00:07:48;;;;;;;6.10;3.35;;;;;;;24.69;16.05;97368.59;5044036;28;20041;-88
2021/01/21 00:10:14;;;;;;;6.10;2.92;;;;;;;25.13;16.00;97375.03;5038949;28;20021;-88
2021/01/21 00:12:40;;;;;;;5.72;2.72;;;;;;;25.09;15.99;97369.53;5040196;28;20048;-89
2021/01/21 00:15:09;;;;;;;6.38;3.70;;;;;;;24.89;16.17;97360.66;5041923;28;20033;-88
2021/01/21 00:17:35;;;;;;;6.18;3.00;;;;;;;25.15;16.07;97364.13;5038425;28;20047;-88
2021/01/21 00:20:02;;;;;;;5.13;3.20;;;;;;;25.44;15.28;97359.00;5039857;28;20025;-88
2021/01/21 00:22:28;;;;;;;4.00;2.70;;;;;;;25.59;15.54;97362.84;5043353;28;22476;-88
2021/01/21 00:24:54;;;;;;;5.03;2.95;;;;;;;25.62;15.50;97359.09;5039206;28;20029;-88
2021/01/21 00:27:20;;;;;;;6.45;2.65;;;;;;;25.71;15.46;97355.53;5045782;28;20376;-89
2021/01/21 00:29:46;;;;;;;3.65;2.40;;;;;;;26.11;15.28;97347.09;5040654;28;20407;-88
2021/01/21 00:32:12;;;;;;;6.00;3.22;;;;;;;25.97;15.21;97346.44;5053152;28;20040;-88
2021/01/21 00:34:38;;;;;;;4.40;2.45;;;;;;;25.57;15.33;97354.09;5036007;28;20044;-88
2021/01/21 00:37:04;;;;;;;4.38;3.00;;;;;;;25.72;15.46;97346.63;5048025;28;20033;-88
2021/01/21 00:39:30;;;;;;;3.85;2.33;;;;;;;26.25;14.94;97340.88;5041528;28;20033;-89
2021/01/21 00:41:56;;;;;;;3.63;2.50;;;;;;;26.12;14.94;97343.81;5040035;28;20036;-88
2021/01/21 00:44:22;;;;;;;4.50;3.03;;;;;;;25.71;15.21;97347.09;5043560;28;20026;-88
2021/01/21 00:46:49;;;;;;;5.13;2.65;;;;;;;25.87;15.38;97353.25;5036924;28;20033;-88
2021/01/21 00:49:15;;;;;;;3.33;2.22;;;;;;;26.45;15.01;97342.00;5039382;28;20108;-88
2021/01/21 00:51:41;;;;;;;4.70;2.55;;;;;;;26.41;14.41;97341.38;5044795;28;20049;-88
2021/01/21 00:54:07;;;;;;;6.57;2.67;;;;;;;26.89;14.47;97341.72;5039577;28;20497;-88
2021/01/21 00:56:33;;;;;;;4.35;2.47;;;;;;;27.21;14.04;97338.22;5040554;28;20018;-88
2021/01/21 00:58:59;;;;;;;5.22;2.70;;;;;;;26.92;14.62;97344.38;5040690;28;20409;-88
2021/01/21 01:01:25;;;;;;;4.68;2.80;;;;;;;26.81;14.56;97341.25;5041724;28;20461;-88
2021/01/21 01:03:51;;;;;;;4.32;2.03;;;;;;;26.68;14.74;97341.38;5040483;28;20047;-88
2021/01/21 01:06:18;;;;;;;6.15;3.33;;;;;;;26.02;14.87;97314.84;5039014;28;20035;-88
2021/01/21 01:08:44;;;;;;;5.03;2.83;;;;;;;25.67;15.59;97326.78;5040204;28;20082;-88
2021/01/21 01:11:10;;;;;;;3.38;1.92;;;;;;;26.40;15.08;97313.69;5036172;28;20037;-88
2021/01/21 01:13:36;;;;;;;4.78;2.28;;;;;;;26.35;15.00;97314.31;5036670;28;20037;-88
2021/01/21 01:16:02;;;;;;;6.00;2.75;;;;;;;25.78;15.25;97315.88;5036538;28;20398;-88
2021/01/21 01:18:28;;;;;;;3.53;1.95;;;;;;;25.72;15.19;97314.94;5036398;28;20545;-88
2021/01/21 01:20:54;;;;;;;2.78;1.95;;;;;;;26.07;14.94;97313.44;5040408;28;20042;-88
2021/01/21 01:23:20;;;;;;;3.85;2.10;;;;;;;25.98;15.14;97310.63;5037532;28;20067;-88
2021/01/21 01:25:46;;;;;;;4.30;2.50;;;;;;;25.98;15.23;97308.59;5042649;28;20106;-88
2021/01/21 01:28:12;;;;;;;2.45;2.05;;;;;;;25.94;15.22;97312.81;5036451;28;20033;-88
2021/01/21 01:30:38;;;;;;;2.33;1.90;;;;;;;26.89;14.32;97310.72;5035690;28;20112;-88
2021/01/21 01:33:04;;;;;;;3.40;1.92;;;;;;;26.50;14.71;97309.63;5042233;28;20051;-88
2021/01/21 01:35:30;;;;;;;2.88;1.83;;;;;;;26.38;14.73;97302.91;5041153;28;20033;-88
2021/01/21 01:37:56;;;;;;;4.50;2.00;;;;;;;26.38;15.06;97290.84;5039441;28;20033;-88
2021/01/21 01:40:22;;;;;;;2.35;1.70;;;;;;;26.74;14.64;97293.66;5037105;28;20029;-88
2021/01/21 01:42:48;;;;;;;3.55;2.45;;;;;;;26.83;14.30;97290.09;5036922;28;20041;-88
2021/01/21 01:45:15;;;;;;;3.22;1.88;;;;;;;26.58;14.54;97286.31;5037541;28;20030;-88
2021/01/21 01:47:43;;;;;;;2.67;1.67;;;;;;;26.76;14.48;97288.38;5039318;28;20034;-88
2021/01/21 01:50:11;;;;;;;2.90;1.90;;;;;;;26.98;14.35;97293.81;5037719;28;20026;-88
2021/01/21 01:52:41;;;;;;;1.95;1.30;;;;;;;26.96;14.25;97283.00;5057870;28;20065;-88
2021/01/21 01:55:10;;;;;;;4.03;1.70;;;;;;;27.19;14.28;97281.56;5038302;28;20131;-88
2021/01/21 01:57:37;;;;;;;2.38;1.48;;;;;;;27.32;14.16;97284.94;5041123;28;20037;-88
2021/01/21 02:00:04;;;;;;;3.40;1.92;;;;;;;27.50;13.73;97278.47;5036151;28;20044;-88
2021/01/21 02:02:31;;;;;;;2.22;1.83;;;;;;;27.41;13.91;97270.84;5041863;28;20394;-88
2021/01/21 02:04:59;;;;;;;3.30;1.88;;;;;;;27.23;14.11;97285.00;5037466;28;20494;-88
2021/01/21 02:07:25;;;;;;;1.80;1.40;;;;;;;27.29;14.11;97286.69;5039593;28;20044;-88
2021/01/21 02:09:51;;;;;;;6.28;2.55;;;;;;;26.78;13.99;97280.22;5036926;28;20028;-88
2021/01/21 02:12:47;;;;;;;3.85;2.45;;;;;;;26.83;14.12;97288.06;5040880;28;20036;-88
2021/01/21 02:15:24;;;;;;;3.20;1.65;;;;;;;26.88;13.80;97286.63;5037685;28;20025;-88
2021/01/21 02:18:02;;;;;;;2.53;1.40;;;;;;;26.65;14.23;97271.91;5037504;28;20080;-88
2021/01/21 02:20:55;;;;;;;3.63;1.63;;;;;;;26.07;14.13;97277.66;5039830;28;20025;-87
2021/01/21 02:24:09;;;;;;;2.65;1.75;;;;;;;26.02;14.57;97277.53;5037256;28;20032;-88
2021/01/21 02:26:55;;;;;;;2.70;1.80;;;;;;;25.93;15.04;97283.88;4992054;28;20168;-87
2021/01/21 02:29:32;;;;;;;3.45;1.98;;;;;;;25.71;14.65;97286.03;5044220;28;20060;-87
2021/01/21 02:32:08;;;;;;;1.35;1.25;;;;;;;25.73;14.94;97296.81;5040416;28;20069;-87
2021/01/21 02:34:51;;;;;;;2.25;1.23;;;;;;;26.00;14.65;97285.63;5040828;28;20493;-87
2021/01/21 02:37:25;;;;;;;3.17;1.67;;;;;;;26.04;14.67;97287.03;5038819;28;20037;-87
2021/01/21 02:39:56;;;;;;;2.33;1.50;;;;;;;26.53;14.29;97280.53;5037344;28;20108;-87
2021/01/21 02:42:24;;;;;;;3.03;1.70;;;;;;;26.80;14.00;97280.53;5039391;28;20053;-87
2021/01/21 02:44:50;;;;;;;3.45;1.92;;;;;;;26.93;13.63;97278.34;5037556;28;20482;-87
2021/01/21 02:47:18;;;;;;;4.63;2.45;;;;;;;26.61;13.94;97282.56;5037541;28;20022;-87
2021/01/21 02:49:48;;;;;;;4.53;1.95;;;;;;;26.37;14.38;97280.84;5038413;28;20053;-87
2021/01/21 02:52:22;;;;;;;4.77;2.00;;;;;;;25.87;14.26;97282.94;5041940;28;20037;-87
2021/01/21 02:55:08;;;;;;;1.67;1.30;;;;;;;25.60;14.88;97287.72;5037978;28;20108;-87
2021/01/21 02:57:53;;;;;;;1.63;1.30;;;;;;;25.46;14.96;97291.09;5042205;28;20064;-87
2021/01/21 03:00:20;;;;;;;2.58;1.60;;;;;;;25.92;14.51;97287.97;5038992;28;20573;-87
2021/01/21 03:02:56;;;;;;;1.75;1.45;;;;;;;26.13;14.57;97289.13;5039632;28;20029;-87
2021/01/21 03:05:23;;;;;;;2.88;1.60;;;;;;;26.07;14.38;97283.28;5039745;28;20035;-87
2021/01/21 03:07:50;;;;;;;3.00;1.85;;;;;;;25.92;14.39;97290.78;5039295;28;20034;-87
2021/01/21 03:10:20;;;;;;;1.95;1.00;;;;;;;25.80;14.43;97288.09;5043952;28;20029;-87
2021/01/21 03:12:57;;;;;;;3.45;1.40;;;;;;;25.57;14.76;97297.06;5041966;28;20041;-87
2021/01/21 03:15:23;;;;;;;2.97;1.38;;;;;;;25.57;14.79;97300.66;5042144;28;20682;-87
2021/01/21 03:17:50;;;;;;;3.78;1.63;;;;;;;25.75;14.68;97297.13;5041089;28;20036;-87
2021/01/21 03:20:17;;;;;;;4.68;1.60;;;;;;;25.90;14.46;97292.50;5043771;28;20033;-86
2021/01/21 03:22:43;;;;;;;2.05;1.30;;;;;;;26.00;14.01;97296.88;5042225;28;20151;-87
2021/01/21 03:25:11;;;;;;;2.85;1.77;;;;;;;26.01;14.10;97293.59;5040746;28;20133;-88
2021/01/21 03:27:37;;;;;;;3.70;1.92;;;;;;;25.55;14.16;97296.75;5043783;28;20033;-87
2021/01/21 03:30:08;;;;;;;2.80;1.58;;;;;;;25.25;14.32;97303.94;5024709;28;20061;-87
2021/01/21 03:32:38;;;;;;;2.50;1.40;;;;;;;25.26;14.22;97297.84;5025216;28;20071;-87
2021/01/21 03:35:07;;;;;;;2.70;1.50;;;;;;;25.26;14.10;97308.28;5027368;28;20069;-87
2021/01/21 03:37:34;;;;;;;1.95;1.20;;;;;;;25.53;13.87;97297.22;5037153;28;20071;-87
2021/01/21 03:40:01;;;;;;;3.05;1.58;;;;;;;25.48;14.18;97309.06;5039564;28;20025;-87
2021/01/21 03:42:27;;;;;;;4.60;2.10;;;;;;;25.40;14.25;97307.75;5040485;28;20232;-87
2021/01/21 03:51:38;;;;;;;2.47;1.30;;;;;;;24.80;14.46;97298.03;5042027;28;20051;-87
2021/01/21 03:54:05;;;;;;;1.65;1.27;;;;;;;24.94;14.58;97289.88;5041329;28;20025;-88
2021/01/21 03:56:31;;;;;;;1.77;1.30;;;;;;;24.58;14.56;97284.75;5044055;28;20032;-87
2021/01/21 03:58:57;;;;;;;1.65;1.30;;;;;;;24.63;14.74;97286.19;5037656;28;20033;-87
2021/01/21 04:01:23;;;;;;;2.78;1.88;;;;;;;24.24;15.10;97286.81;5044097;28;20021;-87
2021/01/21 04:03:50;;;;;;;2.13;1.33;;;;;;;24.34;15.35;97286.44;5042503;28;20182;-87
2021/01/21 04:06:17;;;;;;;3.97;1.38;;;;;;;24.96;14.48;97280.97;5041374;28;20118;-87
2021/01/21 04:08:43;;;;;;;2.28;1.30;;;;;;;25.34;14.00;97279.44;5043127;28;20423;-87
2021/01/21 04:11:09;;;;;;;2.22;1.23;;;;;;;25.17;14.00;97286.56;5038859;28;20033;-87
2021/01/21 04:13:35;;;;;;;3.13;1.60;;;;;;;25.31;14.05;97286.00;5038933;28;20025;-87
2021/01/21 04:16:01;;;;;;;5.57;2.53;;;;;;;24.99;13.60;97271.63;5039519;28;20040;-87
2021/01/21 04:18:27;;;;;;;2.90;1.60;;;;;;;24.63;14.66;97270.13;5040194;28;20044;-87
2021/01/21 04:20:53;;;;;;;3.25;1.33;;;;;;;24.57;14.66;97268.38;5039842;28;20453;-87
2021/01/21 04:23:19;;;;;;;3.38;1.30;;;;;;;24.61;14.60;97266.22;5037388;28;20124;-87
2021/01/21 04:25:45;;;;;;;1.85;1.33;;;;;;;24.43;15.00;97257.69;5040359;28;20068;-87
2021/01/21 04:28:12;;;;;;;2.50;1.17;;;;;;;24.53;15.15;97256.47;5041700;28;20029;-87
2021/01/21 04:30:38;;;;;;;2.08;1.10;;;;;;;24.95;14.42;97263.34;5043098;28;20069;-87
2021/01/21 04:33:04;;;;;;;2.60;1.38;;;;;;;25.12;14.35;97261.09;5045780;28;20533;-87
2021/01/21 04:35:30;;;;;;;4.05;2.00;;;;;;;24.88;14.45;97272.03;5041071;28;20032;-87
2021/01/21 04:37:58;;;;;;;7.00;2.28;;;;;;;25.26;14.35;97264.13;5040940;28;20421;-87
2021/01/21 04:40:26;;;;;;;18.33;6.93;;;;;;;25.48;13.96;97271.75;5038142;28;20508;-87
2021/01/21 04:42:53;;;;;;;11.88;4.30;;;;;;;25.50;13.92;97266.44;5042664;28;20068;-87
2021/01/21 04:45:19;;;;;;;27.60;7.35;;;;;;;25.40;13.85;97263.56;5039048;28;20021;-87
2021/01/21 04:47:46;;;;;;;43.60;11.38;;;;;;;25.19;14.39;97267.22;5039226;28;20400;-87
2021/01/21 04:50:13;;;;;;;10.02;3.90;;;;;;;24.78;14.30;97259.19;5040786;28;20402;-87
2021/01/21 04:52:42;;;;;;;4.57;2.00;;;;;;;24.41;14.45;97260.91;5039955;28;20043;-87
2021/01/21 04:55:31;;;;;;;5.85;2.10;;;;;;;24.36;15.10;97260.72;5040571;28;20037;-87
2021/01/21 04:58:09;;;;;;;7.15;2.67;;;;;;;24.78;15.04;97264.03;5045415;28;20057;-87
2021/01/21 05:00:37;;;;;;;7.45;3.00;;;;;;;25.31;14.27;97262.75;5043986;28;20175;-87
2021/01/21 05:03:04;;;;;;;14.27;4.53;;;;;;;25.58;13.76;97260.06;5044184;28;20119;-86
2021/01/21 05:05:31;;;;;;;19.35;6.28;;;;;;;24.98;14.15;97256.81;5036371;28;20037;-87
2021/01/21 05:07:57;;;;;;;16.88;7.38;;;;;;;24.83;14.14;97258.59;5040068;28;20041;-87
2021/01/21 05:10:23;;;;;;;16.77;6.28;;;;;;;24.88;14.03;97274.06;5036638;28;20033;-87
2021/01/21 05:12:49;;;;;;;16.88;7.28;;;;;;;25.07;13.90;97267.31;5040655;28;20033;-86
2021/01/21 05:15:15;;;;;;;23.67;8.35;;;;;;;25.15;13.98;97266.59;5053650;28;20022;-87
2021/01/21 05:17:42;;;;;;;23.05;9.52;;;;;;;25.15;13.81;97260.97;5039045;28;20032;-87
2021/01/21 05:20:09;;;;;;;23.08;8.68;;;;;;;25.09;14.06;97267.63;5036019;28;20394;-87
2021/01/21 05:22:35;;;;;;;15.93;7.20;;;;;;;25.14;13.80;97270.63;5036059;28;20111;-87
2021/01/21 05:25:02;;;;;;;19.67;8.20;;;;;;;24.88;14.04;97266.41;5038760;28;20398;-87
2021/01/21 05:27:28;;;;;;;7.72;3.13;;;;;;;24.80;14.09;97272.78;5039391;28;20037;-87
2021/01/21 05:29:57;;;;;;;9.13;3.95;;;;;;;24.57;14.88;97257.16;5044640;28;20124;-87
2021/01/21 05:32:24;;;;;;;7.45;3.42;;;;;;;24.60;14.33;97259.03;5037992;28;20438;-87
2021/01/21 05:34:50;;;;;;;6.50;2.55;;;;;;;24.53;14.08;97262.88;5050097;28;20171;-87
2021/01/21 05:37:16;;;;;;;5.93;2.47;;;;;;;24.70;14.02;97263.47;5049984;28;20336;-87
2021/01/21 05:39:44;;;;;;;13.35;5.18;;;;;;;24.99;13.94;97263.22;5042647;28;20032;-86
2021/01/21 05:42:12;;;;;;;11.20;5.47;;;;;;;24.84;14.18;97267.78;5052003;28;20047;-87
2021/01/21 05:44:39;;;;;;;14.43;7.60;;;;;;;24.21;14.68;97270.88;5051297;28;20068;-87
2021/01/21 05:47:08;;;;;;;18.17;7.78;;;;;;;24.56;14.35;97266.81;5048184;28;20040;-87
2021/01/21 05:49:36;;;;;;;18.85;6.95;;;;;;;24.54;14.10;97283.31;5040754;28;20037;-87
2021/01/21 05:52:04;;;;;;;30.02;11.95;;;;;;;24.74;14.21;97273.31;5047963;28;20464;-86
2021/01/21 05:54:31;;;;;;;44.35;13.98;;;;;;;24.99;14.04;97275.25;5055453;28;20038;-87
2021/01/21 05:57:01;;;;;;;32.72;13.38;;;;;;;24.72;14.04;97275.81;5047998;28;20395;-87
2021/01/21 05:59:29;;;;;;;9.50;4.22;;;;;;;24.66;13.86;97274.84;5049034;28;20041;-86
2021/01/21 06:01:56;;;;;;;21.25;7.78;;;;;;;24.33;14.04;97275.66;5038574;28;20037;-85
2021/01/21 06:04:27;;;;;;;14.48;5.68;;;;;;;24.43;13.84;97271.72;5044096;28;20053;-86
2021/01/21 06:06:56;;;;;;;19.73;8.18;;;;;;;24.70;13.77;97274.69;5039471;28;20151;-85
2021/01/21 06:09:30;;;;;;;10.55;5.65;;;;;;;24.83;13.65;97271.88;5036966;28;20029;-86
2021/01/21 06:12:00;;;;;;;12.60;6.40;;;;;;;24.32;13.78;97276.91;5040682;28;20515;-86
2021/01/21 06:14:26;;;;;;;10.52;4.55;;;;;;;24.27;14.22;97280.31;5040045;28;20026;-85
2021/01/21 06:16:53;;;;;;;9.82;4.63;;;;;;;23.93;14.40;97281.03;5037413;28;20048;-86
2021/01/21 06:19:20;;;;;;;10.07;5.10;;;;;;;24.25;14.53;97279.97;5041155;28;20041;-85
2021/01/21 06:21:56;;;;;;;11.07;3.88;;;;;;;24.01;14.48;97273.97;5037624;28;20025;-86
2021/01/21 06:24:28;;;;;;;36.00;15.52;;;;;;;24.17;14.51;97284.25;5038673;28;20766;-87
2021/01/21 06:26:58;;;;;;;21.88;10.02;;;;;;;24.34;14.35;97280.81;5041403;28;20037;-86
2021/01/21 06:29:27;;;;;;;14.40;6.88;;;;;;;24.63;13.79;97277.78;5040797;28;20053;-84
2021/01/21 06:31:55;;;;;;;14.80;6.72;;;;;;;24.49;13.68;97270.66;5045081;28;20108;-84
2021/01/21 06:34:25;;;;;;;13.00;6.10;;;;;;;24.35;13.62;97285.19;5046470;28;20485;-86
2021/01/21 06:36:53;;;;;;;15.27;6.27;;;;;;;24.48;13.81;97273.94;5044279;28;20047;-86
2021/01/21 06:39:28;;;;;;;9.82;3.63;;;;;;;24.30;13.66;97284.97;5039926;28;20116;-86
2021/01/21 06:41:57;;;;;;;23.88;11.75;;;;;;;24.38;13.73;97283.50;5042896;28;20045;-90
2021/01/21 06:44:24;;;;;;;19.45;8.88;;;;;;;24.68;13.78;97283.59;5044546;28;20047;-90
2021/01/21 06:46:52;;;;;;;15.52;6.45;;;;;;;24.69;13.92;97287.94;5041624;28;20470;-90
2021/01/21 06:49:19;;;;;;;19.02;8.65;;;;;;;24.94;13.65;97301.09;5045262;28;20040;-91
2021/01/21 06:51:49;;;;;;;13.80;7.80;;;;;;;25.02;13.52;97291.16;5044391;28;20402;-91
2021/01/21 06:54:16;;;;;;;14.82;8.55;;;;;;;24.94;13.21;97291.88;5041819;28;20060;-91
2021/01/21 06:56:42;;;;;;;25.48;12.45;;;;;;;24.45;13.59;97286.06;5043448;28;20061;-91
2021/01/21 06:59:09;;;;;;;14.85;7.28;;;;;;;24.21;14.10;97282.91;5041085;28;20049;-92
2021/01/21 07:01:41;;;;;;;7.32;4.43;;;;;;;24.26;14.27;97278.72;5043075;28;20109;-92
2021/01/21 07:04:10;;;;;;;13.80;6.97;;;;;;;24.76;13.88;97284.16;5052701;28;20036;-84
2021/01/21 07:06:56;;;;;;;16.85;9.63;;;;;;;24.98;13.48;97289.72;5045170;28;20076;-84
2021/01/21 07:09:28;;;;;;;29.15;13.48;;;;;;;24.87;13.65;97280.94;5044214;28;20032;-85
2021/01/21 07:12:01;;;;;;;14.73;6.32;;;;;;;24.25;14.20;97280.75;5047135;28;20426;-84
2021/01/21 07:14:34;;;;;;;16.00;7.82;;;;;;;24.52;14.15;97294.22;5040922;28;20056;-84
2021/01/21 07:17:02;;;;;;;20.05;9.85;;;;;;;24.99;13.55;97292.09;5038897;28;20059;-85
2021/01/21 07:19:34;;;;;;;12.85;7.22;;;;;;;24.80;13.51;97290.41;5060070;28;20493;-84
2021/01/21 07:22:11;;;;;;;9.63;5.25;;;;;;;24.51;14.03;97295.44;5043267;28;20033;-85
2021/01/21 07:24:49;;;;;;;10.68;4.45;;;;;;;24.20;14.75;97294.56;5040801;28;20025;-85
2021/01/21 07:27:18;;;;;;;6.90;4.60;;;;;;;24.58;14.12;97292.38;5044139;28;20493;-85
2021/01/21 07:29:44;;;;;;;10.50;6.13;;;;;;;24.54;14.36;97288.94;5050027;28;20045;-85
2021/01/21 07:32:11;;;;;;;13.88;6.97;;;;;;;24.96;14.12;97295.03;5042678;28;20030;-84
2021/01/21 07:34:44;;;;;;;15.52;7.45;;;;;;;25.29;14.05;97294.13;5044475;28;20037;-88
2021/01/21 07:37:22;;;;;;;20.15;10.52;;;;;;;25.66;13.57;97288.66;5043591;28;20025;-88
2021/01/21 07:40:02;;;;;;;33.95;13.55;;;;;;;25.88;13.17;97280.94;5040521;28;20091;-88
2021/01/21 07:42:37;;;;;;;89.00;32.63;;;;;;;25.73;13.47;97279.94;5050996;28;20033;-84
2021/01/21 07:45:14;;;;;;;32.22;15.10;;;;;;;25.31;13.41;97285.22;5047506;28;20029;-83
2021/01/21 07:47:42;;;;;;;26.67;11.55;;;;;;;24.96;14.10;97275.38;5059323;28;20052;-83
2021/01/21 07:50:17;;;;;;;26.77;13.05;;;;;;;25.10;14.17;97272.00;5054450;28;20037;-83
2021/01/21 07:52:47;;;;;;;23.80;11.05;;;;;;;25.75;13.90;97266.97;5052441;28;20398;-85
2021/01/21 07:55:13;;;;;;;23.80;11.57;;;;;;;26.19;13.45;97269.56;5044744;28;20037;-83
2021/01/21 07:57:40;;;;;;;26.92;11.93;;;;;;;26.17;13.31;97267.22;5047502;28;20068;-85
2021/01/21 08:00:11;;;;;;;20.38;8.65;;;;;;;25.23;13.88;97270.66;5054871;28;20045;-84
2021/01/21 08:02:44;;;;;;;20.40;9.98;;;;;;;25.28;14.28;97274.91;5052019;28;20032;-86
2021/01/21 08:05:11;;;;;;;24.42;10.75;;;;;;;25.89;13.92;97274.81;5050943;28;20036;-86
2021/01/21 08:07:47;;;;;;;35.38;15.48;;;;;;;25.78;13.96;97271.69;5054786;28;20040;-86
2021/01/21 08:10:22;;;;;;;28.27;13.63;;;;;;;25.96;13.87;97273.75;5055663;28;20037;-86
2021/01/21 08:12:52;;;;;;;26.75;12.07;;;;;;;25.91;13.73;97265.91;5056942;28;20037;-86
2021/01/21 08:15:19;;;;;;;26.42;11.75;;;;;;;26.27;13.84;97271.63;5054359;28;20571;-86
2021/01/21 08:17:49;;;;;;;34.67;14.65;;;;;;;26.35;14.04;97263.66;5044433;28;20021;-85
2021/01/21 08:20:22;;;;;;;38.50;16.48;;;;;;;26.84;13.63;97267.06;5046766;28;20028;-86
2021/01/21 08:22:51;;;;;;;26.67;12.93;;;;;;;27.25;13.26;97254.28;5041750;28;20029;-86
2021/01/21 08:25:18;;;;;;;32.00;15.15;;;;;;;27.18;13.37;97263.06;5053181;28;20090;-86
2021/01/21 08:27:45;;;;;;;24.85;11.70;;;;;;;27.42;13.33;97253.44;5048879;28;20022;-89
2021/01/21 08:30:27;;;;;;;18.45;9.38;;;;;;;27.40;12.95;97258.78;5037023;28;20063;-90
2021/01/21 08:33:05;;;;;;;18.17;9.15;;;;;;;27.00;13.56;97249.81;5044600;28;20076;-90
2021/01/21 08:35:37;;;;;;;21.73;9.40;;;;;;;27.43;13.54;97254.22;5042815;28;20071;-90
2021/01/21 08:38:05;;;;;;;24.65;12.07;;;;;;;27.56;13.35;97254.03;5041220;28;20033;-90
2021/01/21 08:40:33;;;;;;;16.83;8.80;;;;;;;27.58;13.22;97252.28;5041158;28;20380;-90
2021/01/21 08:43:00;;;;;;;13.48;6.80;;;;;;;27.28;13.32;97248.47;5045610;28;20044;-90
2021/01/21 08:45:30;;;;;;;19.90;10.55;;;;;;;27.24;13.63;97255.53;5037771;28;20740;-90
2021/01/21 08:47:56;;;;;;;18.60;9.97;;;;;;;26.91;14.03;97257.53;5042985;28;20034;-90
2021/01/21 08:50:32;;;;;;;20.27;9.82;;;;;;;27.32;13.71;97259.59;5045359;28;20036;-90
2021/01/21 08:53:04;;;;;;;20.50;10.70;;;;;;;27.88;13.53;97258.84;5043743;28;20520;-89
2021/01/21 08:55:43;;;;;;;21.35;10.38;;;;;;;28.25;12.74;97251.72;5042352;28;20040;-90
2021/01/21 08:58:14;;;;;;;15.63;8.48;;;;;;;28.60;12.86;97249.09;5042017;28;20442;-88
2021/01/21 09:01:13;;;;;;;21.65;10.82;;;;;;;28.67;12.36;97248.72;5046594;28;20374;-88
2021/01/21 09:03:50;;;;;;;19.90;10.48;;;;;;;28.89;12.94;97254.81;5019978;28;20092;-88
2021/01/21 09:06:19;;;;;;;17.55;9.90;;;;;;;29.06;13.06;97249.41;5040511;28;20048;-88
2021/01/21 09:08:54;;;;;;;17.58;8.68;;;;;;;29.20;12.82;97248.66;5041225;28;20063;-88
2021/01/21 09:11:39;;;;;;;15.52;8.50;;;;;;;28.83;12.62;97244.63;5042779;28;20402;-87
2021/01/21 09:14:13;;;;;;;18.65;9.07;;;;;;;28.60;13.07;97246.28;5038413;28;20069;-87
2021/01/21 09:16:43;;;;;;;22.27;9.27;;;;;;;28.48;13.09;97231.13;5043394;28;20026;-88
2021/01/21 09:19:16;;;;;;;16.55;9.07;;;;;;;28.44;13.41;97233.38;5038131;28;20040;-88
2021/01/21 09:22:03;;;;;;;19.17;9.40;;;;;;;28.52;13.14;97234.53;5044275;28;20037;-88
2021/01/21 09:24:30;;;;;;;16.35;8.45;;;;;;;28.78;13.23;97236.88;5041752;28;20037;-88
2021/01/21 09:27:13;;;;;;;21.23;9.80;;;;;;;28.89;13.51;97234.22;5042108;28;20083;-88
2021/01/21 09:29:46;;;;;;;17.40;10.38;;;;;;;29.07;13.08;97237.63;5035417;28;20056;-87
2021/01/21 09:32:13;;;;;;;14.32;6.70;;;;;;;29.20;12.95;97238.13;5044200;28;20036;-87
2021/01/21 09:34:49;;;;;;;16.23;7.40;;;;;;;28.83;13.48;97230.50;5044489;28;20617;-87
2021/01/21 09:37:16;;;;;;;18.90;10.05;;;;;;;28.92;13.76;97225.53;5054449;28;20065;-87
2021/01/21 09:39:42;;;;;;;13.73;6.50;;;;;;;29.17;13.72;97236.25;5039079;28;20032;-87
2021/01/21 09:42:08;;;;;;;10.25;5.20;;;;;;;29.03;13.37;97227.81;5041838;28;20123;-88
2021/01/21 09:44:34;;;;;;;12.13;7.22;;;;;;;25.82;15.83;97221.69;5041564;28;20486;-87
2021/01/21 09:47:00;;;;;;;8.40;5.10;;;;;;;26.23;15.98;97216.75;5038112;28;20041;-88
2021/01/21 09:49:26;;;;;;;6.25;3.20;;;;;;;26.44;15.84;97213.75;5044567;28;20055;-88
2021/01/21 09:51:52;;;;;;;6.38;4.20;;;;;;;25.26;16.36;97224.78;5042823;28;20068;-88
2021/01/21 09:54:18;;;;;;;9.90;4.28;;;;;;;25.25;16.83;97219.66;5038300;28;20040;-88
2021/01/21 09:56:44;;;;;;;5.25;2.35;;;;;;;27.37;15.30;97220.28;5050788;28;20522;-88
2021/01/21 09:59:12;;;;;;;3.65;2.15;;;;;;;28.57;13.89;97218.97;5034950;28;20037;-88
2021/01/21 10:01:38;;;;;;;6.00;3.80;;;;;;;29.11;14.27;97229.72;5047138;28;20037;-88
2021/01/21 10:04:04;;;;;;;4.78;2.95;;;;;;;26.71;15.43;97225.00;5059293;28;20085;-88
2021/01/21 10:06:30;;;;;;;2.75;1.42;;;;;;;28.15;14.59;97222.00;5048490;28;20033;-88
2021/01/21 10:08:56;;;;;;;3.28;2.10;;;;;;;27.75;14.54;97221.66;5048228;28;20080;-88
2021/01/21 10:11:22;;;;;;;5.90;3.33;;;;;;;26.02;16.25;97224.06;5036825;28;20114;-88
2021/01/21 10:13:48;;;;;;;3.35;1.75;;;;;;;27.12;16.20;97228.34;5043406;28;20144;-88
2021/01/21 10:16:15;;;;;;;3.38;1.70;;;;;;;28.91;14.51;97226.81;5042104;28;20083;-88
2021/01/21 10:18:41;;;;;;;2.53;1.45;;;;;;;29.74;14.02;97224.53;5047474;28;20523;-88
2021/01/21 10:21:07;;;;;;;6.00;3.15;;;;;;;29.38;13.89;97226.59;5042829;28;20056;-88
2021/01/21 10:23:33;;;;;;;2.90;1.70;;;;;;;29.85;12.89;97227.59;5046614;28;20116;-88
2021/01/21 10:25:59;;;;;;;1.85;1.33;;;;;;;30.31;13.66;97217.09;5040144;28;20037;-88
2021/01/21 10:28:25;;;;;;;3.05;1.63;;;;;;;29.57;13.59;97212.22;5045152;28;20026;-88
2021/01/21 10:30:51;;;;;;;5.63;2.88;;;;;;;30.36;13.58;97212.81;5046216;28;20402;-88
2021/01/21 10:33:17;;;;;;;8.15;3.45;;;;;;;30.21;13.39;97209.22;5051729;28;20457;-88
2021/01/21 10:35:43;;;;;;;6.85;3.20;;;;;;;30.63;13.36;97204.59;5043478;28;20041;-88
2021/01/21 10:38:10;;;;;;;5.38;2.33;;;;;;;31.17;13.33;97207.69;5042190;28;20036;-88
2021/01/21 10:40:36;;;;;;;3.83;1.80;;;;;;;31.43;13.17;97208.44;5053178;28;20029;-88
2021/01/21 10:43:02;;;;;;;3.42;2.03;;;;;;;31.48;13.13;97204.09;5043568;28;20068;-85
2021/01/21 10:45:28;;;;;;;4.43;1.73;;;;;;;31.43;13.36;97205.59;5044145;28;20462;-86
2021/01/21 10:47:54;;;;;;;3.83;2.28;;;;;;;31.26;12.30;97201.84;5049769;28;20063;-85
2021/01/21 10:50:20;;;;;;;3.67;1.80;;;;;;;29.14;13.35;97208.19;5041356;28;20390;-86
2021/01/21 10:52:46;;;;;;;2.45;1.45;;;;;;;29.67;13.08;97203.09;5044690;28;20036;-86
2021/01/21 10:55:12;;;;;;;1.23;0.88;;;;;;;30.07;13.03;97183.34;5040190;28;20025;-86
2021/01/21 10:57:38;;;;;;;1.27;0.90;;;;;;;30.72;13.52;97186.63;5042434;28;20120;-86
2021/01/21 11:00:06;;;;;;;3.03;1.33;;;;;;;31.45;13.76;97188.84;5043842;28;20041;-85
2021/01/21 11:02:32;;;;;;;3.63;1.20;;;;;;;31.55;12.91;97183.75;5042805;28;20033;-86
2021/01/21 11:04:58;;;;;;;1.77;1.00;;;;;;;31.81;13.38;97181.59;5052532;28;20094;-86
2021/01/21 11:07:24;;;;;;;1.38;1.05;;;;;;;32.26;13.12;97182.56;5044721;28;20032;-85
2021/01/21 11:09:50;;;;;;;3.22;1.50;;;;;;;32.57;12.26;97176.75;5043366;28;20037;-86
2021/01/21 11:12:16;;;;;;;3.13;1.45;;;;;;;32.53;12.74;97174.16;5041454;28;20089;-86
2021/01/21 11:14:48;;;;;;;1.73;0.90;;;;;;;32.78;12.73;97177.28;5047764;28;20049;-86
2021/01/21 11:17:15;;;;;;;1.17;0.80;;;;;;;32.96;12.28;97171.09;5041693;28;20025;-85
2021/01/21 11:19:41;;;;;;;0.70;0.55;;;;;;;32.64;12.14;97171.34;5037492;28;20104;-86
2021/01/21 11:22:08;;;;;;;0.68;0.52;;;;;;;32.61;12.21;97160.97;5046150;28;20029;-86
2021/01/21 11:24:34;;;;;;;1.00;0.70;;;;;;;32.59;12.27;97160.72;5041405;28;20367;-86
2021/01/21 11:27:00;;;;;;;1.15;0.60;;;;;;;32.61;12.19;97160.97;5045676;28;20059;-86
2021/01/21 11:29:26;;;;;;;1.02;0.73;;;;;;;32.73;12.29;97170.31;5040986;28;20044;-86
2021/01/21 11:31:53;;;;;;;2.33;0.80;;;;;;;32.80;12.44;97157.63;5041946;28;20045;-86
2021/01/21 11:34:19;;;;;;;1.58;0.77;;;;;;;32.97;12.23;97158.44;5043420;28;20482;-86
2021/01/21 11:36:47;;;;;;;1.83;0.63;;;;;;;33.01;11.96;97154.06;5037967;28;20167;-86
2021/01/21 11:39:13;;;;;;;3.10;1.17;;;;;;;32.40;11.59;97148.25;5042748;28;20025;-86
2021/01/21 11:41:39;;;;;;;2.17;1.40;;;;;;;31.02;12.23;97139.00;5040444;28;20044;-86
2021/01/21 11:44:06;;;;;;;1.27;0.85;;;;;;;31.82;12.92;97141.31;5044351;28;20033;-86